createdAt,value
2023-12-07T00:02:09.573Z,20.27
2023-12-07T00:04:38.811Z,19.90
2023-12-07T00:07:09.538Z,20.85
2023-12-07T00:09:38.687Z,20.15
2023-12-07T00:12:08.875Z,20.85
2023-12-07T00:14:37.954Z,19.02
2023-12-07T00:17:07.027Z,18.60
2023-12-07T00:19:36.399Z,20.00
2023-12-07T00:22:06.278Z,20.38
2023-12-07T00:24:35.739Z,20.23
2023-12-07T00:27:06.653Z,20.60
2023-12-07T00:29:36.016Z,19.70
2023-12-07T00:32:06.258Z,19.15
2023-12-07T00:34:35.608Z,19.23
2023-12-07T00:37:05.427Z,19.85
2023-12-07T00:39:38.386Z,20.65
2023-12-07T00:42:07.576Z,19.77
2023-12-07T00:44:41.046Z,21.80
2023-12-07T00:47:10.173Z,21.70
2023-12-07T00:49:41.856Z,20.23
2023-12-07T00:52:11.153Z,21.45
2023-12-07T00:54:42.187Z,21.45
2023-12-07T00:57:11.323Z,19.10
2023-12-07T00:59:40.415Z,19.75
2023-12-07T01:02:09.737Z,19.85
2023-12-07T01:04:40.978Z,20.80
2023-12-07T01:07:10.384Z,19.65
2023-12-07T01:09:40.011Z,17.83
2023-12-07T01:12:10.566Z,20.95
2023-12-07T01:14:39.789Z,19.55
2023-12-07T01:17:08.891Z,19.00
2023-12-07T01:19:38.164Z,18.73
2023-12-07T01:22:10.144Z,20.23
2023-12-07T01:24:39.379Z,18.38
2023-12-07T01:27:08.542Z,18.05
2023-12-07T01:29:39.039Z,18.80
2023-12-07T01:32:08.903Z,18.50
2023-12-07T01:34:38.058Z,17.88
2023-12-07T01:37:07.235Z,20.13
2023-12-07T01:39:36.485Z,19.00
2023-12-07T01:42:06.058Z,19.63
2023-12-07T01:44:35.413Z,17.23
2023-12-07T01:47:07.174Z,19.65
2023-12-07T01:49:37.116Z,18.00
2023-12-07T01:52:07.340Z,20.08
2023-12-07T01:54:37.192Z,19.95
2023-12-07T01:57:06.738Z,19.33
2023-12-07T01:59:36.413Z,18.77
2023-12-07T02:02:07.168Z,17.70
2023-12-07T02:04:37.641Z,19.65
2023-12-07T02:07:09.065Z,17.80
2023-12-07T02:09:38.573Z,16.80
2023-12-07T02:12:08.222Z,18.75
2023-12-07T02:14:37.788Z,18.80
2023-12-07T02:17:17.246Z,18.95
2023-12-07T02:19:57.536Z,15.73
2023-12-07T02:22:31.995Z,18.10
2023-12-07T02:25:09.800Z,18.35
2023-12-07T02:27:42.426Z,18.10
2023-12-07T02:30:14.429Z,19.48
2023-12-07T02:32:47.114Z,17.77
2023-12-07T02:35:16.743Z,17.45
2023-12-07T02:37:48.947Z,19.02
2023-12-07T02:40:21.706Z,20.75
2023-12-07T02:42:52.597Z,18.30
2023-12-07T02:45:21.889Z,18.08
2023-12-07T02:47:51.248Z,19.77
2023-12-07T02:50:20.738Z,20.30
2023-12-07T02:52:49.881Z,19.48
2023-12-07T02:55:19.061Z,21.05
2023-12-07T02:57:49.000Z,20.25
2023-12-07T03:00:22.326Z,19.85
2023-12-07T03:02:51.979Z,19.08
2023-12-07T03:05:24.231Z,18.65
2023-12-07T03:07:53.415Z,19.77
2023-12-07T03:10:22.478Z,17.88
2023-12-07T03:12:51.573Z,18.48
2023-12-07T03:15:22.024Z,18.38
2023-12-07T03:17:51.815Z,18.73
2023-12-07T03:20:21.375Z,18.60
2023-12-07T03:22:50.627Z,16.45
2023-12-07T03:25:19.807Z,19.13
2023-12-07T03:27:48.993Z,19.20
2023-12-07T03:30:18.735Z,18.55
2023-12-07T03:32:49.172Z,17.92
2023-12-07T03:35:18.253Z,18.85
2023-12-07T03:37:47.340Z,17.42
2023-12-07T03:40:16.474Z,18.38
2023-12-07T03:42:51.676Z,16.70
2023-12-07T03:45:26.035Z,16.00
2023-12-07T03:47:56.580Z,17.88
2023-12-07T03:50:25.969Z,16.52
2023-12-07T03:52:55.015Z,18.83
2023-12-07T03:55:24.087Z,16.13
2023-12-07T03:57:53.314Z,17.65
2023-12-07T04:00:22.506Z,18.10
2023-12-07T04:02:51.635Z,17.17
2023-12-07T04:05:22.261Z,17.00
2023-12-07T04:07:51.424Z,17.77
2023-12-07T04:10:20.469Z,18.15
2023-12-07T04:12:49.751Z,20.40
2023-12-07T04:15:19.734Z,18.92
2023-12-07T04:17:49.028Z,19.83
2023-12-07T04:20:18.194Z,18.73
2023-12-07T04:22:48.858Z,16.88
2023-12-07T04:25:18.119Z,18.80
2023-12-07T04:27:47.310Z,15.48
2023-12-07T04:30:16.863Z,17.67
2023-12-07T04:32:46.002Z,16.95
2023-12-07T04:35:15.366Z,17.77
2023-12-07T04:37:44.608Z,17.40
2023-12-07T04:40:15.650Z,15.75
2023-12-07T04:42:44.818Z,16.08
2023-12-07T04:45:13.887Z,14.00
2023-12-07T04:47:43.317Z,15.88
2023-12-07T04:50:12.781Z,15.80
2023-12-07T04:52:41.907Z,15.23
2023-12-07T04:55:11.269Z,18.52
2023-12-07T04:57:41.729Z,15.88
2023-12-07T05:00:12.752Z,14.90
2023-12-07T05:02:41.888Z,15.98
2023-12-07T05:05:11.356Z,15.95
2023-12-07T05:07:40.565Z,14.90
2023-12-07T05:10:11.183Z,14.73
2023-12-07T05:12:41.944Z,15.00
2023-12-07T05:15:11.748Z,15.25
2023-12-07T05:17:40.993Z,14.63
2023-12-07T05:20:13.721Z,15.70
2023-12-07T05:22:42.895Z,15.02
2023-12-07T05:25:12.261Z,16.02
2023-12-07T05:27:42.712Z,13.80
2023-12-07T05:30:13.313Z,14.88
2023-12-07T05:32:42.404Z,13.75
2023-12-07T05:35:11.528Z,15.13
2023-12-07T05:37:40.693Z,15.18
2023-12-07T05:40:13.427Z,14.68
2023-12-07T05:42:44.046Z,15.55
2023-12-07T05:45:13.857Z,14.27
2023-12-07T05:47:43.304Z,12.60
2023-12-07T05:50:12.514Z,13.20
2023-12-07T05:52:41.728Z,12.98
2023-12-07T05:55:11.023Z,13.30
2023-12-07T05:57:40.435Z,13.90
2023-12-07T06:00:13.015Z,15.57
2023-12-07T06:02:42.278Z,15.65
2023-12-07T06:05:12.313Z,15.23
2023-12-07T06:07:41.636Z,15.75
2023-12-07T06:10:12.222Z,14.70
2023-12-07T06:12:41.496Z,14.70
2023-12-07T06:15:12.769Z,14.55
2023-12-07T06:17:42.189Z,14.55
2023-12-07T06:20:13.001Z,14.13
2023-12-07T06:22:42.684Z,15.15
2023-12-07T06:25:12.490Z,14.60
2023-12-07T06:27:41.870Z,14.32
2023-12-07T06:30:13.570Z,14.80
2023-12-07T06:32:42.766Z,15.45
2023-12-07T06:35:14.597Z,15.18
2023-12-07T06:37:43.902Z,14.70
2023-12-07T06:40:13.865Z,15.20
2023-12-07T06:42:43.096Z,14.73
2023-12-07T06:45:15.464Z,14.95
2023-12-07T06:47:44.774Z,14.77
2023-12-07T06:50:14.442Z,13.00
2023-12-07T06:52:46.320Z,14.30
2023-12-07T06:55:16.565Z,14.38
2023-12-07T06:57:46.285Z,13.68
2023-12-07T07:00:19.454Z,15.10
2023-12-07T07:02:48.807Z,14.18
2023-12-07T07:05:18.068Z,14.55
2023-12-07T07:07:47.362Z,14.07
2023-12-07T07:10:16.813Z,14.38
2023-12-07T07:12:46.019Z,15.07
2023-12-07T07:15:17.414Z,12.65
2023-12-07T07:17:46.695Z,13.70
2023-12-07T07:20:16.024Z,13.35
2023-12-07T07:22:45.999Z,12.52
2023-12-07T07:25:16.439Z,13.05
2023-12-07T07:27:45.698Z,12.75
2023-12-07T07:30:17.018Z,12.15
2023-12-07T07:32:46.682Z,12.15
2023-12-07T07:35:15.995Z,12.57
2023-12-07T07:37:46.108Z,13.88
2023-12-07T07:40:15.691Z,13.13
2023-12-07T07:42:45.029Z,14.05
2023-12-07T07:45:14.253Z,13.13
2023-12-07T07:47:45.106Z,14.18
2023-12-07T07:50:14.548Z,13.95
2023-12-07T07:52:43.857Z,12.18
2023-12-07T07:55:13.947Z,11.98
2023-12-07T07:57:44.064Z,12.35
2023-12-07T08:00:15.117Z,12.98
2023-12-07T08:02:45.879Z,12.55
2023-12-07T08:05:16.085Z,11.85
2023-12-07T08:07:45.400Z,11.77
2023-12-07T08:10:14.843Z,11.82
2023-12-07T08:12:44.386Z,11.88
2023-12-07T08:15:13.835Z,12.35
2023-12-07T08:17:43.756Z,11.73
2023-12-07T08:20:15.886Z,11.38
2023-12-07T08:22:46.054Z,11.38
2023-12-07T08:25:15.297Z,11.90
2023-12-07T08:27:45.982Z,11.85
2023-12-07T08:30:15.721Z,11.20
2023-12-07T08:32:44.972Z,10.73
2023-12-07T08:35:15.669Z,11.35
2023-12-07T08:37:44.936Z,11.40
2023-12-07T08:40:13.472Z,10.75
2023-12-07T08:42:42.881Z,10.48
2023-12-07T08:45:12.626Z,10.50
2023-12-07T08:47:42.369Z,10.82
2023-12-07T08:50:11.931Z,11.55
2023-12-07T08:52:47.720Z,10.55
2023-12-07T08:55:20.531Z,10.07
2023-12-07T08:57:49.851Z,9.90
2023-12-07T09:00:25.201Z,10.10
2023-12-07T09:02:55.296Z,9.93
2023-12-07T09:05:24.635Z,8.93
2023-12-07T09:07:55.404Z,8.57
2023-12-07T09:10:25.275Z,9.25
2023-12-07T09:12:54.599Z,8.07
2023-12-07T09:15:24.255Z,7.82
2023-12-07T09:17:53.481Z,8.05
2023-12-07T09:20:22.803Z,8.57
2023-12-07T09:22:52.713Z,7.32
2023-12-07T09:25:23.496Z,8.93
2023-12-07T09:27:52.894Z,8.32
2023-12-07T09:30:22.307Z,8.50
2023-12-07T09:32:51.584Z,9.20
2023-12-07T09:35:21.697Z,8.43
2023-12-07T09:37:51.721Z,8.75
2023-12-07T09:40:23.833Z,8.57
2023-12-07T09:42:53.626Z,8.52
2023-12-07T09:45:25.127Z,9.23
2023-12-07T09:47:56.632Z,8.52
2023-12-07T09:50:29.013Z,8.93
2023-12-07T09:53:07.689Z,7.82
2023-12-07T09:55:39.750Z,7.72
2023-12-07T09:58:09.895Z,7.35
2023-12-07T10:00:39.935Z,7.78
2023-12-07T10:03:11.071Z,7.40
2023-12-07T10:06:01.227Z,7.53
2023-12-07T10:08:32.582Z,7.28
2023-12-07T10:11:09.074Z,7.15
2023-12-07T10:13:40.243Z,6.50
2023-12-07T10:16:12.685Z,5.68
2023-12-07T10:18:43.989Z,6.47
2023-12-07T10:21:15.552Z,5.32
2023-12-07T10:23:49.631Z,5.32
2023-12-07T10:26:22.283Z,6.25
2023-12-07T10:28:55.889Z,5.90
2023-12-07T10:31:26.078Z,5.65
2023-12-07T10:33:55.672Z,5.20
2023-12-07T10:36:25.668Z,5.25
2023-12-07T10:38:55.272Z,5.15
2023-12-07T10:41:27.268Z,5.40
2023-12-07T10:44:01.695Z,4.72
2023-12-07T10:46:34.991Z,4.82
2023-12-07T10:49:15.639Z,5.25
2023-12-07T10:52:00.915Z,4.85
2023-12-07T10:54:43.544Z,5.05
2023-12-07T10:57:16.250Z,4.70
2023-12-07T10:59:47.014Z,4.95
2023-12-07T11:02:20.678Z,4.88
2023-12-07T11:04:51.392Z,4.43
2023-12-07T11:07:24.715Z,4.70
2023-12-07T11:10:01.798Z,4.05
2023-12-07T11:12:40.809Z,4.38
2023-12-07T11:15:11.805Z,4.05
2023-12-07T11:17:55.416Z,3.53
2023-12-07T11:20:34.840Z,3.65
2023-12-07T11:23:08.094Z,3.15
2023-12-07T11:25:37.727Z,2.35
2023-12-07T11:28:10.940Z,1.90
2023-12-07T11:30:46.760Z,2.30
2023-12-07T11:33:19.225Z,2.25
2023-12-07T11:36:10.235Z,1.80
2023-12-07T11:38:41.626Z,1.58
2023-12-07T11:41:12.706Z,1.80
2023-12-07T11:43:47.793Z,1.45
2023-12-07T11:46:17.676Z,1.33
2023-12-07T11:48:50.858Z,1.35
2023-12-07T11:51:20.810Z,1.77
2023-12-07T11:53:51.500Z,1.45
2023-12-07T11:56:23.150Z,1.75
2023-12-07T11:58:54.228Z,1.63
2023-12-07T12:01:23.866Z,1.60
2023-12-07T12:03:53.172Z,1.50
2023-12-07T12:06:22.353Z,1.83
2023-12-07T12:08:51.582Z,1.92
2023-12-07T12:11:20.952Z,1.70
2023-12-07T12:13:51.473Z,1.73
2023-12-07T12:16:22.449Z,2.10
2023-12-07T12:18:51.872Z,1.80
2023-12-07T12:21:22.434Z,1.70
2023-12-07T12:23:52.580Z,1.77
2023-12-07T12:26:22.625Z,1.67
2023-12-07T12:28:53.896Z,1.35
2023-12-07T12:31:24.766Z,1.80
2023-12-07T12:33:54.036Z,1.55
2023-12-07T12:36:24.417Z,1.48
2023-12-07T12:38:53.645Z,1.70
2023-12-07T12:41:23.690Z,1.80
2023-12-07T12:43:54.420Z,1.55
2023-12-07T12:46:26.044Z,1.70
2023-12-07T12:48:57.901Z,1.60
2023-12-07T12:51:28.851Z,1.50
2023-12-07T12:53:59.430Z,1.50
2023-12-07T12:56:30.460Z,1.60
2023-12-07T12:59:04.109Z,2.13
2023-12-07T13:01:37.046Z,1.60
2023-12-07T13:04:06.990Z,2.08
2023-12-07T13:06:36.571Z,2.00
2023-12-07T13:09:05.838Z,2.10
2023-12-07T13:11:35.449Z,1.80
2023-12-07T13:14:09.493Z,1.90
2023-12-07T13:16:40.508Z,2.10
2023-12-07T13:19:09.818Z,3.63
2023-12-07T13:21:39.687Z,2.40
2023-12-07T13:24:13.949Z,2.00
2023-12-07T13:26:43.362Z,2.20
2023-12-07T13:29:18.262Z,2.13
2023-12-07T13:31:52.680Z,2.25
2023-12-07T13:34:24.079Z,2.17
2023-12-07T13:36:53.974Z,1.80
2023-12-07T13:39:30.224Z,1.75
2023-12-07T13:42:03.215Z,2.70
2023-12-07T13:44:34.864Z,1.95
2023-12-07T13:47:05.925Z,1.85
2023-12-07T13:49:35.475Z,2.30
2023-12-07T13:52:07.855Z,1.90
2023-12-07T13:57:11.361Z,2.00
2023-12-07T13:59:43.148Z,2.15
2023-12-07T14:02:13.761Z,1.77
2023-12-07T14:04:46.457Z,2.20
2023-12-07T14:07:18.363Z,1.92
2023-12-07T14:09:56.811Z,1.80
2023-12-07T14:12:30.536Z,1.65
2023-12-07T14:15:00.226Z,1.88
2023-12-07T14:17:47.055Z,1.90
2023-12-07T14:20:35.219Z,2.33
2023-12-07T14:23:13.143Z,2.00
2023-12-07T14:25:45.360Z,1.98
2023-12-07T14:28:15.194Z,1.88
2023-12-07T14:30:44.619Z,2.17
2023-12-07T14:33:20.112Z,2.70
2023-12-07T14:35:50.044Z,2.25
2023-12-07T14:38:19.577Z,3.42
2023-12-07T14:40:48.845Z,2.25
2023-12-07T14:43:19.077Z,1.90
2023-12-07T14:45:49.963Z,2.35
2023-12-07T14:48:32.090Z,2.40
2023-12-07T14:51:03.962Z,2.30
2023-12-07T14:53:33.528Z,3.03
2023-12-07T14:56:14.935Z,2.55
2023-12-07T14:58:46.819Z,2.92
2023-12-07T15:01:16.094Z,3.45
2023-12-07T15:03:54.723Z,2.30
2023-12-07T15:06:26.134Z,2.10
2023-12-07T15:08:57.837Z,1.67
2023-12-07T15:11:40.977Z,2.03
2023-12-07T15:14:15.539Z,2.30
2023-12-07T15:16:55.732Z,2.00
2023-12-07T15:19:26.982Z,2.40
2023-12-07T15:21:56.381Z,2.25
2023-12-07T15:24:34.305Z,1.95
2023-12-07T15:27:06.208Z,3.58
2023-12-07T15:29:36.884Z,5.13
2023-12-07T15:32:08.164Z,4.53
2023-12-07T15:34:42.086Z,5.57
2023-12-07T15:37:14.239Z,5.10
2023-12-07T15:39:45.551Z,3.53
2023-12-07T15:42:14.841Z,5.07
2023-12-07T15:44:44.209Z,3.20
2023-12-07T15:47:13.401Z,3.30
2023-12-07T15:49:44.317Z,3.65
2023-12-07T15:52:13.704Z,3.70
2023-12-07T15:54:44.762Z,3.65
2023-12-07T15:57:13.902Z,3.30
2023-12-07T15:59:44.950Z,2.75
2023-12-07T16:02:14.251Z,3.65
2023-12-07T16:04:45.193Z,3.28
2023-12-07T16:07:14.458Z,3.45
2023-12-07T16:09:43.795Z,3.08
2023-12-07T16:12:13.106Z,2.70
2023-12-07T16:14:42.894Z,3.30
2023-12-07T16:17:13.677Z,3.67
2023-12-07T16:19:44.447Z,3.17
2023-12-07T16:22:13.846Z,3.10
2023-12-07T16:24:43.042Z,5.03
2023-12-07T16:27:13.033Z,36.25
2023-12-07T16:29:43.047Z,47.70
2023-12-07T16:32:14.159Z,45.78
2023-12-07T16:34:46.413Z,22.70
2023-12-07T16:37:15.565Z,19.13
2023-12-07T16:39:45.968Z,12.45
2023-12-07T16:42:15.244Z,12.68
2023-12-07T16:44:45.608Z,10.90
2023-12-07T16:47:15.256Z,9.43
2023-12-07T16:49:45.951Z,6.85
2023-12-07T16:52:15.206Z,6.78
2023-12-07T16:54:44.606Z,7.43
2023-12-07T16:57:14.452Z,5.47
2023-12-07T16:59:43.697Z,5.82
2023-12-07T17:02:12.812Z,4.60
2023-12-07T17:04:42.371Z,4.00
2023-12-07T17:07:13.140Z,5.22
2023-12-07T17:09:42.706Z,4.25
2023-12-07T17:12:12.399Z,4.28
2023-12-07T17:14:43.733Z,4.68
2023-12-07T17:17:12.868Z,4.55
2023-12-07T17:19:48.615Z,5.07
2023-12-07T17:22:21.869Z,4.93
2023-12-07T17:24:51.089Z,5.38
2023-12-07T17:27:20.325Z,6.20
2023-12-07T17:29:49.529Z,7.13
2023-12-07T17:32:18.904Z,6.05
2023-12-07T17:34:48.359Z,6.32
2023-12-07T17:37:17.568Z,5.82
2023-12-07T17:39:48.453Z,5.22
2023-12-07T17:42:17.799Z,5.75
2023-12-07T17:44:47.419Z,4.35
2023-12-07T17:47:16.716Z,3.47
2023-12-07T17:49:45.901Z,3.85
2023-12-07T17:52:15.299Z,3.50
2023-12-07T17:54:44.535Z,3.83
2023-12-07T17:57:15.302Z,4.95
2023-12-07T17:59:44.642Z,4.28
2023-12-07T18:02:13.933Z,5.30
2023-12-07T18:04:43.221Z,5.68
2023-12-07T18:07:12.480Z,5.53
2023-12-07T18:09:44.072Z,5.75
2023-12-07T18:12:14.838Z,5.03
2023-12-07T18:14:44.013Z,5.68
2023-12-07T18:17:13.540Z,5.20
2023-12-07T18:19:42.966Z,5.65
2023-12-07T18:22:12.243Z,4.93
2023-12-07T18:24:41.663Z,7.22
2023-12-07T18:27:10.887Z,6.25
2023-12-07T18:29:41.448Z,5.85
2023-12-07T18:32:15.224Z,7.35
2023-12-07T18:34:44.897Z,7.28
2023-12-07T18:37:14.220Z,6.40
2023-12-07T18:39:43.323Z,7.82
2023-12-07T18:42:12.597Z,6.90
2023-12-07T18:44:45.290Z,5.53
2023-12-07T18:47:15.382Z,5.38
2023-12-07T18:49:44.756Z,4.65
2023-12-07T18:52:14.095Z,5.07
2023-12-07T18:54:44.838Z,5.30
2023-12-07T18:57:14.538Z,4.78
2023-12-07T18:59:45.391Z,4.63
2023-12-07T19:02:14.630Z,4.65
2023-12-07T19:04:45.115Z,4.65
2023-12-07T19:07:14.744Z,6.43
2023-12-07T19:09:43.840Z,6.07
2023-12-07T19:12:12.952Z,6.88
2023-12-07T19:14:42.360Z,6.40
2023-12-07T19:17:13.481Z,7.40
2023-12-07T19:19:42.598Z,6.55
2023-12-07T19:22:12.668Z,7.65
2023-12-07T19:24:41.888Z,9.02
2023-12-07T19:27:13.821Z,8.25
2023-12-07T19:29:44.851Z,7.80
2023-12-07T19:32:16.342Z,8.05
2023-12-07T19:34:46.758Z,8.00
2023-12-07T19:37:16.228Z,8.43
2023-12-07T19:39:47.791Z,9.48
2023-12-07T19:42:17.122Z,8.93
2023-12-07T19:44:47.135Z,8.25
2023-12-07T19:47:17.585Z,7.28
2023-12-07T19:49:46.905Z,7.50
2023-12-07T19:52:16.333Z,7.35
2023-12-07T19:54:45.543Z,8.88
2023-12-07T19:57:14.751Z,9.35
2023-12-07T19:59:44.023Z,9.93
2023-12-07T20:02:13.358Z,8.98
2023-12-07T20:04:44.051Z,10.20
2023-12-07T20:07:13.189Z,15.23
2023-12-07T20:09:43.573Z,12.88
2023-12-07T20:12:12.882Z,12.40
2023-12-07T20:14:42.533Z,15.07
2023-12-07T20:17:11.718Z,12.35
2023-12-07T20:19:41.215Z,14.38
2023-12-07T20:22:11.880Z,13.27
2023-12-07T20:24:41.161Z,11.30
2023-12-07T20:27:10.353Z,9.63
2023-12-07T20:29:39.644Z,7.63
2023-12-07T20:32:10.676Z,7.47
2023-12-07T20:34:40.503Z,7.78
2023-12-07T20:37:12.187Z,7.35
2023-12-07T20:39:41.720Z,7.57
2023-12-07T20:42:10.971Z,7.10
2023-12-07T20:44:40.303Z,9.02
2023-12-07T20:47:09.552Z,8.02
2023-12-07T20:49:40.199Z,6.50
2023-12-07T20:52:12.989Z,8.60
2023-12-07T20:54:42.144Z,7.53
2023-12-07T20:57:21.436Z,7.18
2023-12-07T20:59:52.127Z,5.80
2023-12-07T21:02:24.261Z,6.15
2023-12-07T21:04:53.614Z,5.85
2023-12-07T21:07:25.058Z,6.60
2023-12-07T21:09:54.691Z,7.18
2023-12-07T21:12:24.390Z,7.18
2023-12-07T21:14:54.880Z,6.13
2023-12-07T21:17:24.562Z,5.30
2023-12-07T21:19:54.737Z,5.28
2023-12-07T21:22:26.814Z,5.32
2023-12-07T21:25:00.352Z,5.65
2023-12-07T21:27:30.703Z,5.50
2023-12-07T21:30:00.590Z,5.63
2023-12-07T21:32:30.257Z,6.00
2023-12-07T21:34:59.740Z,6.28
2023-12-07T21:37:31.261Z,6.65
2023-12-07T21:40:02.106Z,6.93
2023-12-07T21:42:31.590Z,7.00
2023-12-07T21:45:01.000Z,8.18
2023-12-07T21:47:30.699Z,8.25
2023-12-07T21:50:00.440Z,8.63
2023-12-07T21:52:32.118Z,9.57
2023-12-07T21:55:01.728Z,9.43
2023-12-07T21:57:30.956Z,8.57
2023-12-07T22:00:00.407Z,8.55
2023-12-07T22:02:29.577Z,8.00
2023-12-07T22:04:58.832Z,9.75
2023-12-07T22:07:28.883Z,9.75
2023-12-07T22:10:06.614Z,10.38
2023-12-07T22:12:43.209Z,10.60
2023-12-07T22:15:14.292Z,10.43
2023-12-07T22:17:43.618Z,9.75
2023-12-07T22:20:12.920Z,9.07
2023-12-07T22:22:42.400Z,9.75
2023-12-07T22:25:13.119Z,8.25
2023-12-07T22:27:42.244Z,7.78
2023-12-07T22:30:13.551Z,8.57
2023-12-07T22:32:42.811Z,7.43
2023-12-07T22:35:12.700Z,7.60
2023-12-07T22:37:42.121Z,7.47
2023-12-07T22:40:13.735Z,7.47
2023-12-07T22:42:42.794Z,7.97
2023-12-07T22:45:12.923Z,9.60
2023-12-07T22:47:41.259Z,8.40
2023-12-07T22:50:11.572Z,8.88
2023-12-07T22:52:40.759Z,9.32
2023-12-07T22:55:10.441Z,9.38
2023-12-07T22:57:40.974Z,9.68
2023-12-07T23:00:19.851Z,8.95
2023-12-07T23:02:49.651Z,9.55
2023-12-07T23:05:19.829Z,9.90
2023-12-07T23:07:49.448Z,9.50
2023-12-07T23:10:19.026Z,8.90
2023-12-07T23:12:49.718Z,9.13
2023-12-07T23:15:18.999Z,8.45
2023-12-07T23:17:48.321Z,7.72
2023-12-07T23:20:17.736Z,8.63
2023-12-07T23:22:46.918Z,9.82
2023-12-07T23:25:16.214Z,8.13
2023-12-07T23:27:45.330Z,9.00
2023-12-07T23:30:16.449Z,8.40
2023-12-07T23:32:45.734Z,8.73
2023-12-07T23:35:14.993Z,8.07
2023-12-07T23:37:44.164Z,7.72
2023-12-07T23:40:14.844Z,8.10
2023-12-07T23:42:44.365Z,9.35
2023-12-07T23:45:15.727Z,7.75
2023-12-07T23:47:45.023Z,6.38
2023-12-07T23:50:14.849Z,6.38
2023-12-07T23:52:44.076Z,5.60
2023-12-07T23:55:13.233Z,6.30
2023-12-07T23:57:42.336Z,6.85
